sensor_id;sensor_type;location;lat;lon;timestamp;P1;P2;P0
64631;PMS5003;58358;50.936;0.246;2022-08-11T00:00:32;10;10;
64631;PMS5003;58358;50.936;0.246;2022-08-11T00:02:56;10;10;
64631;PMS5003;58358;50.936;0.246;2022-08-11T00:05:21;13;13;
64631;PMS5003;58358;50.936;0.246;2022-08-11T00:07:48;11;11;
64631;PMS5003;58358;50.936;0.246;2022-08-11T00:10:14;14;14;
64631;PMS5003;58358;50.936;0.246;2022-08-11T00:12:38;14;12;
64631;PMS5003;58358;50.936;0.246;2022-08-11T00:15:04;13;13;
64631;PMS5003;58358;50.936;0.246;2022-08-11T00:17:32;13;12;
64631;PMS5003;58358;50.936;0.246;2022-08-11T00:20:00;12;12;
64631;PMS5003;58358;50.936;0.246;2022-08-11T00:22:20;12;12;
64631;PMS5003;58358;50.936;0.246;2022-08-11T00:24:46;14;12;
64631;PMS5003;58358;50.936;0.246;2022-08-11T00:27:12;13;13;
64631;PMS5003;58358;50.936;0.246;2022-08-11T00:29:37;12;11;
64631;PMS5003;58358;50.936;0.246;2022-08-11T00:32:03;12;12;
64631;PMS5003;58358;50.936;0.246;2022-08-11T00:34:30;13;13;
64631;PMS5003;58358;50.936;0.246;2022-08-11T00:36:55;11;11;
64631;PMS5003;58358;50.936;0.246;2022-08-11T00:39:21;14;12;
64631;PMS5003;58358;50.936;0.246;2022-08-11T00:41:47;14;14;
64631;PMS5003;58358;50.936;0.246;2022-08-11T00:44:20;11;11;
64631;PMS5003;58358;50.936;0.246;2022-08-11T00:46:41;11;10;
64631;PMS5003;58358;50.936;0.246;2022-08-11T00:49:08;13;13;
64631;PMS5003;58358;50.936;0.246;2022-08-11T00:51:35;13;13;
64631;PMS5003;58358;50.936;0.246;2022-08-11T00:54:04;11;11;
64631;PMS5003;58358;50.936;0.246;2022-08-11T00:56:25;11;11;
64631;PMS5003;58358;50.936;0.246;2022-08-11T01:01:13;13;13;
64631;PMS5003;58358;50.936;0.246;2022-08-11T01:06:05;12;12;
64631;PMS5003;58358;50.936;0.246;2022-08-11T01:08:40;14;11;
64631;PMS5003;58358;50.936;0.246;2022-08-11T01:10:56;12;12;
64631;PMS5003;58358;50.936;0.246;2022-08-11T01:15:53;12;12;
64631;PMS5003;58358;50.936;0.246;2022-08-11T01:18:18;12;12;
64631;PMS5003;58358;50.936;0.246;2022-08-11T01:30:22;10;10;
64631;PMS5003;58358;50.936;0.246;2022-08-11T01:47:21;15;15;
64631;PMS5003;58358;50.936;0.246;2022-08-11T01:49:44;11;11;
64631;PMS5003;58358;50.936;0.246;2022-08-11T01:52:12;13;13;
64631;PMS5003;58358;50.936;0.246;2022-08-11T01:54:36;15;14;
64631;PMS5003;58358;50.936;0.246;2022-08-11T01:57:10;12;12;
64631;PMS5003;58358;50.936;0.246;2022-08-11T01:59:28;15;14;
64631;PMS5003;58358;50.936;0.246;2022-08-11T02:04:28;16;14;
64631;PMS5003;58358;50.936;0.246;2022-08-11T02:06:44;14;13;
64631;PMS5003;58358;50.936;0.246;2022-08-11T02:09:11;13;13;
64631;PMS5003;58358;50.936;0.246;2022-08-11T02:11:34;17;15;
64631;PMS5003;58358;50.936;0.246;2022-08-11T02:14:01;15;14;
64631;PMS5003;58358;50.936;0.246;2022-08-11T02:16:28;15;15;
64631;PMS5003;58358;50.936;0.246;2022-08-11T02:18:52;15;14;
64631;PMS5003;58358;50.936;0.246;2022-08-11T02:21:15;14;14;
64631;PMS5003;58358;50.936;0.246;2022-08-11T02:23:51;18;15;
64631;PMS5003;58358;50.936;0.246;2022-08-11T02:26:08;15;15;
64631;PMS5003;58358;50.936;0.246;2022-08-11T02:28:34;17;16;
64631;PMS5003;58358;50.936;0.246;2022-08-11T02:30:59;14;14;
64631;PMS5003;58358;50.936;0.246;2022-08-11T02:33:23;16;16;
64631;PMS5003;58358;50.936;0.246;2022-08-11T02:35:56;16;16;
64631;PMS5003;58358;50.936;0.246;2022-08-11T02:38:16;15;13;
64631;PMS5003;58358;50.936;0.246;2022-08-11T02:40:42;17;15;
64631;PMS5003;58358;50.936;0.246;2022-08-11T02:43:07;17;15;
64631;PMS5003;58358;50.936;0.246;2022-08-11T02:45:33;16;13;
64631;PMS5003;58358;50.936;0.246;2022-08-11T02:47:58;16;15;
64631;PMS5003;58358;50.936;0.246;2022-08-11T02:50:22;18;16;
64631;PMS5003;58358;50.936;0.246;2022-08-11T02:52:49;18;18;
64631;PMS5003;58358;50.936;0.246;2022-08-11T02:55:16;16;16;
64631;PMS5003;58358;50.936;0.246;2022-08-11T02:57:39;19;18;
64631;PMS5003;58358;50.936;0.246;2022-08-11T03:00:04;15;14;
64631;PMS5003;58358;50.936;0.246;2022-08-11T03:02:34;12;12;
64631;PMS5003;58358;50.936;0.246;2022-08-11T03:04:59;16;16;
64631;PMS5003;58358;50.936;0.246;2022-08-11T03:07:20;19;18;
64631;PMS5003;58358;50.936;0.246;2022-08-11T03:09:48;19;18;
64631;PMS5003;58358;50.936;0.246;2022-08-11T03:12:10;13;12;
64631;PMS5003;58358;50.936;0.246;2022-08-11T03:14:38;13;13;
64631;PMS5003;58358;50.936;0.246;2022-08-11T03:17:05;17;15;
64631;PMS5003;58358;50.936;0.246;2022-08-11T03:19:28;16;14;
64631;PMS5003;58358;50.936;0.246;2022-08-11T03:21:55;16;16;
64631;PMS5003;58358;50.936;0.246;2022-08-11T03:24:18;15;14;
64631;PMS5003;58358;50.936;0.246;2022-08-11T03:26:46;19;16;
64631;PMS5003;58358;50.936;0.246;2022-08-11T03:29:10;15;15;
64631;PMS5003;58358;50.936;0.246;2022-08-11T03:31:35;15;15;
64631;PMS5003;58358;50.936;0.246;2022-08-11T03:34:00;16;14;
64631;PMS5003;58358;50.936;0.246;2022-08-11T03:36:32;16;15;
64631;PMS5003;58358;50.936;0.246;2022-08-11T03:38:56;12;12;
64631;PMS5003;58358;50.936;0.246;2022-08-11T03:41:19;16;16;
64631;PMS5003;58358;50.936;0.246;2022-08-11T03:43:46;20;19;
64631;PMS5003;58358;50.936;0.246;2022-08-11T03:46:09;15;14;
64631;PMS5003;58358;50.936;0.246;2022-08-11T03:48:37;15;15;
64631;PMS5003;58358;50.936;0.246;2022-08-11T03:51:02;18;18;
64631;PMS5003;58358;50.936;0.246;2022-08-11T03:53:31;14;14;
64631;PMS5003;58358;50.936;0.246;2022-08-11T04:00:46;15;15;
64631;PMS5003;58358;50.936;0.246;2022-08-11T04:03:11;17;17;
64631;PMS5003;58358;50.936;0.246;2022-08-11T04:05:37;21;20;
64631;PMS5003;58358;50.936;0.246;2022-08-11T04:10:32;15;15;
64631;PMS5003;58358;50.936;0.246;2022-08-11T04:12:55;18;18;
64631;PMS5003;58358;50.936;0.246;2022-08-11T04:17:48;18;18;
64631;PMS5003;58358;50.936;0.246;2022-08-11T04:22:38;19;17;
64631;PMS5003;58358;50.936;0.246;2022-08-11T04:32:19;20;20;
64631;PMS5003;58358;50.936;0.246;2022-08-11T04:34:43;23;19;
64631;PMS5003;58358;50.936;0.246;2022-08-11T04:39:33;21;19;
64631;PMS5003;58358;50.936;0.246;2022-08-11T04:44:24;17;16;
64631;PMS5003;58358;50.936;0.246;2022-08-11T04:46:52;17;15;
64631;PMS5003;58358;50.936;0.246;2022-08-11T04:51:41;19;17;
64631;PMS5003;58358;50.936;0.246;2022-08-11T04:54:02;18;16;
64631;PMS5003;58358;50.936;0.246;2022-08-11T04:56:27;20;17;
64631;PMS5003;58358;50.936;0.246;2022-08-11T05:01:22;20;19;
64631;PMS5003;58358;50.936;0.246;2022-08-11T05:03:49;16;16;
64631;PMS5003;58358;50.936;0.246;2022-08-11T05:08:40;17;17;
64631;PMS5003;58358;50.936;0.246;2022-08-11T05:11:05;16;16;
64631;PMS5003;58358;50.936;0.246;2022-08-11T05:13:26;19;19;
64631;PMS5003;58358;50.936;0.246;2022-08-11T05:15:51;19;17;
64631;PMS5003;58358;50.936;0.246;2022-08-11T05:18:17;19;19;
64631;PMS5003;58358;50.936;0.246;2022-08-11T05:20:44;18;18;
64631;PMS5003;58358;50.936;0.246;2022-08-11T05:23:07;16;16;
64631;PMS5003;58358;50.936;0.246;2022-08-11T05:25:33;19;19;
64631;PMS5003;58358;50.936;0.246;2022-08-11T05:27:59;14;14;
64631;PMS5003;58358;50.936;0.246;2022-08-11T05:30:25;19;17;
64631;PMS5003;58358;50.936;0.246;2022-08-11T05:32:55;20;20;
64631;PMS5003;58358;50.936;0.246;2022-08-11T05:35:14;15;15;
64631;PMS5003;58358;50.936;0.246;2022-08-11T05:37:41;19;18;
64631;PMS5003;58358;50.936;0.246;2022-08-11T05:40:05;13;12;
64631;PMS5003;58358;50.936;0.246;2022-08-11T05:42:31;16;16;
64631;PMS5003;58358;50.936;0.246;2022-08-11T05:44:56;20;18;
64631;PMS5003;58358;50.936;0.246;2022-08-11T05:47:22;15;15;
64631;PMS5003;58358;50.936;0.246;2022-08-11T05:49:48;16;16;
64631;PMS5003;58358;50.936;0.246;2022-08-11T05:52:13;14;14;
64631;PMS5003;58358;50.936;0.246;2022-08-11T05:54:38;17;17;
64631;PMS5003;58358;50.936;0.246;2022-08-11T05:57:03;14;14;
64631;PMS5003;58358;50.936;0.246;2022-08-11T05:59:28;18;17;
64631;PMS5003;58358;50.936;0.246;2022-08-11T06:01:58;16;16;
64631;PMS5003;58358;50.936;0.246;2022-08-11T06:04:19;19;19;
64631;PMS5003;58358;50.936;0.246;2022-08-11T06:06:46;19;18;
64631;PMS5003;58358;50.936;0.246;2022-08-11T06:09:09;21;16;
64631;PMS5003;58358;50.936;0.246;2022-08-11T06:11:36;13;13;
64631;PMS5003;58358;50.936;0.246;2022-08-11T06:14:01;15;15;
64631;PMS5003;58358;50.936;0.246;2022-08-11T06:16:26;19;19;
64631;PMS5003;58358;50.936;0.246;2022-08-11T06:18:52;14;14;
64631;PMS5003;58358;50.936;0.246;2022-08-11T06:21:17;15;15;
64631;PMS5003;58358;50.936;0.246;2022-08-11T06:23:44;20;16;
64631;PMS5003;58358;50.936;0.246;2022-08-11T06:26:09;14;14;
64631;PMS5003;58358;50.936;0.246;2022-08-11T06:28:35;16;15;
64631;PMS5003;58358;50.936;0.246;2022-08-11T06:31:00;16;15;
64631;PMS5003;58358;50.936;0.246;2022-08-11T06:33:29;12;12;
64631;PMS5003;58358;50.936;0.246;2022-08-11T06:35:58;14;14;
64631;PMS5003;58358;50.936;0.246;2022-08-11T06:38:21;13;13;
64631;PMS5003;58358;50.936;0.246;2022-08-11T06:40:45;15;14;
64631;PMS5003;58358;50.936;0.246;2022-08-11T06:43:10;18;15;
64631;PMS5003;58358;50.936;0.246;2022-08-11T06:45:33;15;15;
64631;PMS5003;58358;50.936;0.246;2022-08-11T06:47:57;17;16;
64631;PMS5003;58358;50.936;0.246;2022-08-11T06:50:22;15;15;
64631;PMS5003;58358;50.936;0.246;2022-08-11T06:52:48;14;14;
64631;PMS5003;58358;50.936;0.246;2022-08-11T06:55:14;19;18;
64631;PMS5003;58358;50.936;0.246;2022-08-11T06:57:38;12;10;
64631;PMS5003;58358;50.936;0.246;2022-08-11T07:00:04;17;13;
64631;PMS5003;58358;50.936;0.246;2022-08-11T07:02:30;12;12;
64631;PMS5003;58358;50.936;0.246;2022-08-11T07:04:58;11;11;
64631;PMS5003;58358;50.936;0.246;2022-08-11T07:07:28;14;14;
64631;PMS5003;58358;50.936;0.246;2022-08-11T07:12:18;13;13;
64631;PMS5003;58358;50.936;0.246;2022-08-11T07:14:38;13;13;
64631;PMS5003;58358;50.936;0.246;2022-08-11T07:17:03;13;13;
64631;PMS5003;58358;50.936;0.246;2022-08-11T07:19:28;14;14;
64631;PMS5003;58358;50.936;0.246;2022-08-11T07:21:54;12;12;
64631;PMS5003;58358;50.936;0.246;2022-08-11T07:24:21;16;15;
64631;PMS5003;58358;50.936;0.246;2022-08-11T07:26:47;17;16;
64631;PMS5003;58358;50.936;0.246;2022-08-11T07:29:11;13;13;
64631;PMS5003;58358;50.936;0.246;2022-08-11T07:31:37;12;12;
64631;PMS5003;58358;50.936;0.246;2022-08-11T07:34:04;11;11;
64631;PMS5003;58358;50.936;0.246;2022-08-11T07:36:27;12;11;
64631;PMS5003;58358;50.936;0.246;2022-08-11T07:38:53;11;11;
64631;PMS5003;58358;50.936;0.246;2022-08-11T07:41:19;12;12;
64631;PMS5003;58358;50.936;0.246;2022-08-11T07:43:45;11;11;
64631;PMS5003;58358;50.936;0.246;2022-08-11T07:46:10;12;10;
64631;PMS5003;58358;50.936;0.246;2022-08-11T07:48:35;12;12;
64631;PMS5003;58358;50.936;0.246;2022-08-11T07:51:00;12;12;
64631;PMS5003;58358;50.936;0.246;2022-08-11T07:53:26;12;12;
64631;PMS5003;58358;50.936;0.246;2022-08-11T07:55:52;13;13;
64631;PMS5003;58358;50.936;0.246;2022-08-11T07:58:17;12;12;
64631;PMS5003;58358;50.936;0.246;2022-08-11T08:00:43;10;10;
64631;PMS5003;58358;50.936;0.246;2022-08-11T08:03:08;14;12;
64631;PMS5003;58358;50.936;0.246;2022-08-11T08:05:34;12;10;
64631;PMS5003;58358;50.936;0.246;2022-08-11T08:07:59;14;13;
64631;PMS5003;58358;50.936;0.246;2022-08-11T08:10:25;12;12;
64631;PMS5003;58358;50.936;0.246;2022-08-11T08:12:51;12;12;
64631;PMS5003;58358;50.936;0.246;2022-08-11T08:15:16;13;13;
64631;PMS5003;58358;50.936;0.246;2022-08-11T08:17:42;15;11;
64631;PMS5003;58358;50.936;0.246;2022-08-11T08:20:09;15;13;
64631;PMS5003;58358;50.936;0.246;2022-08-11T08:22:33;11;10;
64631;PMS5003;58358;50.936;0.246;2022-08-11T08:24:58;14;14;
64631;PMS5003;58358;50.936;0.246;2022-08-11T08:27:24;11;11;
64631;PMS5003;58358;50.936;0.246;2022-08-11T08:29:49;11;10;
64631;PMS5003;58358;50.936;0.246;2022-08-11T08:32:15;10;10;
64631;PMS5003;58358;50.936;0.246;2022-08-11T08:34:41;15;13;
64631;PMS5003;58358;50.936;0.246;2022-08-11T08:37:06;11;11;
64631;PMS5003;58358;50.936;0.246;2022-08-11T08:39:32;9;9;
64631;PMS5003;58358;50.936;0.246;2022-08-11T08:41:57;10;9;
64631;PMS5003;58358;50.936;0.246;2022-08-11T08:44:23;12;11;
64631;PMS5003;58358;50.936;0.246;2022-08-11T08:46:49;9;9;
64631;PMS5003;58358;50.936;0.246;2022-08-11T08:49:15;10;10;
64631;PMS5003;58358;50.936;0.246;2022-08-11T08:51:39;14;12;
64631;PMS5003;58358;50.936;0.246;2022-08-11T08:54:06;12;12;
64631;PMS5003;58358;50.936;0.246;2022-08-11T08:56:31;13;12;
64631;PMS5003;58358;50.936;0.246;2022-08-11T08:58:57;15;14;
64631;PMS5003;58358;50.936;0.246;2022-08-11T09:01:22;14;13;
64631;PMS5003;58358;50.936;0.246;2022-08-11T09:03:48;12;12;
64631;PMS5003;58358;50.936;0.246;2022-08-11T09:06:14;13;13;
64631;PMS5003;58358;50.936;0.246;2022-08-11T09:08:39;15;15;
64631;PMS5003;58358;50.936;0.246;2022-08-11T09:11:04;13;13;
64631;PMS5003;58358;50.936;0.246;2022-08-11T09:13:30;14;13;
64631;PMS5003;58358;50.936;0.246;2022-08-11T09:15:55;12;11;
64631;PMS5003;58358;50.936;0.246;2022-08-11T09:18:21;12;12;
64631;PMS5003;58358;50.936;0.246;2022-08-11T09:20:46;13;13;
64631;PMS5003;58358;50.936;0.246;2022-08-11T09:23:12;11;11;
64631;PMS5003;58358;50.936;0.246;2022-08-11T09:25:37;10;10;
64631;PMS5003;58358;50.936;0.246;2022-08-11T09:28:03;12;12;
64631;PMS5003;58358;50.936;0.246;2022-08-11T09:30:28;13;12;
64631;PMS5003;58358;50.936;0.246;2022-08-11T09:32:55;14;12;
64631;PMS5003;58358;50.936;0.246;2022-08-11T09:35:19;10;10;
64631;PMS5003;58358;50.936;0.246;2022-08-11T09:37:45;9;9;
64631;PMS5003;58358;50.936;0.246;2022-08-11T09:40:10;13;13;
64631;PMS5003;58358;50.936;0.246;2022-08-11T09:42:36;14;13;
64631;PMS5003;58358;50.936;0.246;2022-08-11T09:45:02;12;12;
64631;PMS5003;58358;50.936;0.246;2022-08-11T09:47:28;13;13;
64631;PMS5003;58358;50.936;0.246;2022-08-11T09:49:55;11;10;
64631;PMS5003;58358;50.936;0.246;2022-08-11T09:52:19;11;11;
64631;PMS5003;58358;50.936;0.246;2022-08-11T09:54:46;12;12;
64631;PMS5003;58358;50.936;0.246;2022-08-11T09:57:10;12;12;
64631;PMS5003;58358;50.936;0.246;2022-08-11T09:59:35;12;12;
64631;PMS5003;58358;50.936;0.246;2022-08-11T10:02:01;13;13;
64631;PMS5003;58358;50.936;0.246;2022-08-11T10:04:26;13;12;
64631;PMS5003;58358;50.936;0.246;2022-08-11T10:06:52;10;10;
64631;PMS5003;58358;50.936;0.246;2022-08-11T10:09:18;11;11;
64631;PMS5003;58358;50.936;0.246;2022-08-11T10:11:43;11;11;
64631;PMS5003;58358;50.936;0.246;2022-08-11T10:14:08;8;8;
64631;PMS5003;58358;50.936;0.246;2022-08-11T10:16:34;12;11;
64631;PMS5003;58358;50.936;0.246;2022-08-11T10:19:00;9;9;
64631;PMS5003;58358;50.936;0.246;2022-08-11T10:21:26;12;12;
64631;PMS5003;58358;50.936;0.246;2022-08-11T10:23:51;12;12;
64631;PMS5003;58358;50.936;0.246;2022-08-11T10:26:17;10;10;
64631;PMS5003;58358;50.936;0.246;2022-08-11T10:28:41;10;9;
64631;PMS5003;58358;50.936;0.246;2022-08-11T10:31:07;12;11;
64631;PMS5003;58358;50.936;0.246;2022-08-11T10:33:33;10;10;
64631;PMS5003;58358;50.936;0.246;2022-08-11T10:35:58;15;13;
64631;PMS5003;58358;50.936;0.246;2022-08-11T10:38:24;13;10;
64631;PMS5003;58358;50.936;0.246;2022-08-11T10:40:49;11;11;
64631;PMS5003;58358;50.936;0.246;2022-08-11T10:43:15;14;12;
64631;PMS5003;58358;50.936;0.246;2022-08-11T10:45:42;12;12;
64631;PMS5003;58358;50.936;0.246;2022-08-11T10:48:06;10;10;
64631;PMS5003;58358;50.936;0.246;2022-08-11T10:50:32;11;11;
64631;PMS5003;58358;50.936;0.246;2022-08-11T10:52:58;9;9;
64631;PMS5003;58358;50.936;0.246;2022-08-11T10:55:23;10;10;
64631;PMS5003;58358;50.936;0.246;2022-08-11T10:57:48;10;10;
64631;PMS5003;58358;50.936;0.246;2022-08-11T11:00:14;13;13;
64631;PMS5003;58358;50.936;0.246;2022-08-11T11:02:39;13;12;
64631;PMS5003;58358;50.936;0.246;2022-08-11T11:05:06;10;10;
64631;PMS5003;58358;50.936;0.246;2022-08-11T11:07:35;11;11;
64631;PMS5003;58358;50.936;0.246;2022-08-11T11:09:57;13;12;
64631;PMS5003;58358;50.936;0.246;2022-08-11T11:12:22;10;10;
64631;PMS5003;58358;50.936;0.246;2022-08-11T11:14:47;10;10;
64631;PMS5003;58358;50.936;0.246;2022-08-11T11:17:13;10;10;
64631;PMS5003;58358;50.936;0.246;2022-08-11T11:19:38;9;8;
64631;PMS5003;58358;50.936;0.246;2022-08-11T11:22:04;14;12;
64631;PMS5003;58358;50.936;0.246;2022-08-11T11:24:30;9;9;
64631;PMS5003;58358;50.936;0.246;2022-08-11T11:26:55;9;9;
64631;PMS5003;58358;50.936;0.246;2022-08-11T11:31:50;9;9;
64631;PMS5003;58358;50.936;0.246;2022-08-11T11:34:14;9;9;
64631;PMS5003;58358;50.936;0.246;2022-08-11T11:36:41;10;10;
64631;PMS5003;58358;50.936;0.246;2022-08-11T11:39:02;10;10;
64631;PMS5003;58358;50.936;0.246;2022-08-11T11:41:28;9;7;
64631;PMS5003;58358;50.936;0.246;2022-08-11T11:43:54;11;10;
64631;PMS5003;58358;50.936;0.246;2022-08-11T11:46:19;10;10;
64631;PMS5003;58358;50.936;0.246;2022-08-11T11:48:45;9;9;
64631;PMS5003;58358;50.936;0.246;2022-08-11T11:51:10;9;9;
64631;PMS5003;58358;50.936;0.246;2022-08-11T11:53:36;9;8;
64631;PMS5003;58358;50.936;0.246;2022-08-11T11:56:01;12;11;
64631;PMS5003;58358;50.936;0.246;2022-08-11T11:58:27;9;9;
64631;PMS5003;58358;50.936;0.246;2022-08-11T12:00:52;10;10;
64631;PMS5003;58358;50.936;0.246;2022-08-11T12:03:18;12;11;
64631;PMS5003;58358;50.936;0.246;2022-08-11T12:05:43;12;12;
64631;PMS5003;58358;50.936;0.246;2022-08-11T12:08:09;10;10;
64631;PMS5003;58358;50.936;0.246;2022-08-11T12:10:34;12;10;
64631;PMS5003;58358;50.936;0.246;2022-08-11T12:13:00;11;10;
64631;PMS5003;58358;50.936;0.246;2022-08-11T12:15:25;10;10;
64631;PMS5003;58358;50.936;0.246;2022-08-11T12:17:51;11;10;
64631;PMS5003;58358;50.936;0.246;2022-08-11T12:20:16;11;10;
64631;PMS5003;58358;50.936;0.246;2022-08-11T12:22:42;10;10;
64631;PMS5003;58358;50.936;0.246;2022-08-11T12:25:08;10;10;
64631;PMS5003;58358;50.936;0.246;2022-08-11T12:27:33;11;10;
64631;PMS5003;58358;50.936;0.246;2022-08-11T12:29:59;13;11;
64631;PMS5003;58358;50.936;0.246;2022-08-11T12:32:26;11;11;
64631;PMS5003;58358;50.936;0.246;2022-08-11T12:34:49;11;11;
64631;PMS5003;58358;50.936;0.246;2022-08-11T12:37:15;10;10;
64631;PMS5003;58358;50.936;0.246;2022-08-11T12:39:41;10;10;
64631;PMS5003;58358;50.936;0.246;2022-08-11T12:42:07;10;10;
64631;PMS5003;58358;50.936;0.246;2022-08-11T12:44:32;12;12;
64631;PMS5003;58358;50.936;0.246;2022-08-11T12:46:57;9;9;
64631;PMS5003;58358;50.936;0.246;2022-08-11T12:49:22;8;8;
64631;PMS5003;58358;50.936;0.246;2022-08-11T12:51:49;9;9;
64631;PMS5003;58358;50.936;0.246;2022-08-11T12:54:14;10;10;
64631;PMS5003;58358;50.936;0.246;2022-08-11T12:56:40;11;11;
64631;PMS5003;58358;50.936;0.246;2022-08-11T12:59:06;10;10;
64631;PMS5003;58358;50.936;0.246;2022-08-11T13:01:30;9;9;
64631;PMS5003;58358;50.936;0.246;2022-08-11T13:03:55;10;10;
64631;PMS5003;58358;50.936;0.246;2022-08-11T13:06:22;7;7;
64631;PMS5003;58358;50.936;0.246;2022-08-11T13:08:46;9;9;
64631;PMS5003;58358;50.936;0.246;2022-08-11T13:11:14;10;10;
64631;PMS5003;58358;50.936;0.246;2022-08-11T13:13:37;11;11;
64631;PMS5003;58358;50.936;0.246;2022-08-11T13:16:03;11;9;
64631;PMS5003;58358;50.936;0.246;2022-08-11T13:18:28;10;10;
64631;PMS5003;58358;50.936;0.246;2022-08-11T13:20:55;9;9;
64631;PMS5003;58358;50.936;0.246;2022-08-11T13:23:20;8;8;
64631;PMS5003;58358;50.936;0.246;2022-08-11T13:25:45;10;10;
64631;PMS5003;58358;50.936;0.246;2022-08-11T13:28:11;8;8;
64631;PMS5003;58358;50.936;0.246;2022-08-11T13:30:36;12;11;
64631;PMS5003;58358;50.936;0.246;2022-08-11T13:33:02;10;10;
64631;PMS5003;58358;50.936;0.246;2022-08-11T13:35:28;8;8;
64631;PMS5003;58358;50.936;0.246;2022-08-11T13:37:53;8;8;
64631;PMS5003;58358;50.936;0.246;2022-08-11T13:40:19;10;9;
64631;PMS5003;58358;50.936;0.246;2022-08-11T13:42:44;8;8;
64631;PMS5003;58358;50.936;0.246;2022-08-11T13:45:09;13;13;
64631;PMS5003;58358;50.936;0.246;2022-08-11T13:47:35;10;10;
64631;PMS5003;58358;50.936;0.246;2022-08-11T13:50:01;11;10;
64631;PMS5003;58358;50.936;0.246;2022-08-11T13:52:26;11;11;
64631;PMS5003;58358;50.936;0.246;2022-08-11T13:54:52;10;10;
64631;PMS5003;58358;50.936;0.246;2022-08-11T13:57:17;12;12;
64631;PMS5003;58358;50.936;0.246;2022-08-11T13:59:43;12;10;
64631;PMS5003;58358;50.936;0.246;2022-08-11T14:02:11;13;13;
64631;PMS5003;58358;50.936;0.246;2022-08-11T14:04:36;11;11;
64631;PMS5003;58358;50.936;0.246;2022-08-11T14:07:04;9;9;
64631;PMS5003;58358;50.936;0.246;2022-08-11T14:09:26;10;10;
64631;PMS5003;58358;50.936;0.246;2022-08-11T14:11:51;12;12;
64631;PMS5003;58358;50.936;0.246;2022-08-11T14:14:17;11;11;
64631;PMS5003;58358;50.936;0.246;2022-08-11T14:16:41;10;10;
64631;PMS5003;58358;50.936;0.246;2022-08-11T14:19:08;11;10;
64631;PMS5003;58358;50.936;0.246;2022-08-11T14:21:33;9;9;
64631;PMS5003;58358;50.936;0.246;2022-08-11T14:23:58;11;11;
64631;PMS5003;58358;50.936;0.246;2022-08-11T14:26:23;10;10;
64631;PMS5003;58358;50.936;0.246;2022-08-11T14:28:49;8;8;
64631;PMS5003;58358;50.936;0.246;2022-08-11T14:31:14;9;9;
64631;PMS5003;58358;50.936;0.246;2022-08-11T14:33:40;8;8;
64631;PMS5003;58358;50.936;0.246;2022-08-11T14:36:06;8;8;
64631;PMS5003;58358;50.936;0.246;2022-08-11T14:38:31;8;8;
64631;PMS5003;58358;50.936;0.246;2022-08-11T14:40:56;8;8;
64631;PMS5003;58358;50.936;0.246;2022-08-11T14:43:22;6;6;
64631;PMS5003;58358;50.936;0.246;2022-08-11T14:45:47;10;9;
64631;PMS5003;58358;50.936;0.246;2022-08-11T14:48:13;9;9;
64631;PMS5003;58358;50.936;0.246;2022-08-11T14:50:38;10;10;
64631;PMS5003;58358;50.936;0.246;2022-08-11T14:53:05;10;9;
64631;PMS5003;58358;50.936;0.246;2022-08-11T14:55:30;10;9;
64631;PMS5003;58358;50.936;0.246;2022-08-11T14:57:55;7;7;
64631;PMS5003;58358;50.936;0.246;2022-08-11T15:00:20;9;7;
64631;PMS5003;58358;50.936;0.246;2022-08-11T15:02:46;6;6;
64631;PMS5003;58358;50.936;0.246;2022-08-11T15:05:11;8;8;
64631;PMS5003;58358;50.936;0.246;2022-08-11T15:07:37;12;9;
64631;PMS5003;58358;50.936;0.246;2022-08-11T15:10:03;7;7;
64631;PMS5003;58358;50.936;0.246;2022-08-11T15:12:28;6;6;
64631;PMS5003;58358;50.936;0.246;2022-08-11T15:14:53;9;9;
64631;PMS5003;58358;50.936;0.246;2022-08-11T15:17:19;7;6;
64631;PMS5003;58358;50.936;0.246;2022-08-11T15:19:44;7;7;
64631;PMS5003;58358;50.936;0.246;2022-08-11T15:22:10;8;8;
64631;PMS5003;58358;50.936;0.246;2022-08-11T15:24:35;6;6;
64631;PMS5003;58358;50.936;0.246;2022-08-11T15:27:01;6;6;
64631;PMS5003;58358;50.936;0.246;2022-08-11T15:29:27;6;6;
64631;PMS5003;58358;50.936;0.246;2022-08-11T15:31:52;7;6;
64631;PMS5003;58358;50.936;0.246;2022-08-11T15:34:18;8;8;
64631;PMS5003;58358;50.936;0.246;2022-08-11T15:36:44;9;7;
64631;PMS5003;58358;50.936;0.246;2022-08-11T15:39:12;9;8;
64631;PMS5003;58358;50.936;0.246;2022-08-11T15:41:34;6;6;
64631;PMS5003;58358;50.936;0.246;2022-08-11T15:43:59;9;7;
64631;PMS5003;58358;50.936;0.246;2022-08-11T15:46:27;6;6;
64631;PMS5003;58358;50.936;0.246;2022-08-11T15:48:54;6;6;
64631;PMS5003;58358;50.936;0.246;2022-08-11T15:51:16;8;7;
64631;PMS5003;58358;50.936;0.246;2022-08-11T15:53:42;9;7;
64631;PMS5003;58358;50.936;0.246;2022-08-11T15:56:07;6;6;
64631;PMS5003;58358;50.936;0.246;2022-08-11T15:58:35;7;7;
64631;PMS5003;58358;50.936;0.246;2022-08-11T16:00:58;7;7;
64631;PMS5003;58358;50.936;0.246;2022-08-11T16:03:23;7;7;
64631;PMS5003;58358;50.936;0.246;2022-08-11T16:05:49;7;7;
64631;PMS5003;58358;50.936;0.246;2022-08-11T16:08:15;8;8;
64631;PMS5003;58358;50.936;0.246;2022-08-11T16:10:40;9;9;
64631;PMS5003;58358;50.936;0.246;2022-08-11T16:13:05;9;9;
64631;PMS5003;58358;50.936;0.246;2022-08-11T16:15:31;9;9;
64631;PMS5003;58358;50.936;0.246;2022-08-11T16:17:58;8;8;
64631;PMS5003;58358;50.936;0.246;2022-08-11T16:20:22;10;10;
64631;PMS5003;58358;50.936;0.246;2022-08-11T16:22:47;8;8;
64631;PMS5003;58358;50.936;0.246;2022-08-11T16:25:13;10;10;
64631;PMS5003;58358;50.936;0.246;2022-08-11T16:27:45;9;9;
64631;PMS5003;58358;50.936;0.246;2022-08-11T16:30:04;10;9;
64631;PMS5003;58358;50.936;0.246;2022-08-11T16:32:29;13;13;
64631;PMS5003;58358;50.936;0.246;2022-08-11T16:34:55;10;10;
64631;PMS5003;58358;50.936;0.246;2022-08-11T16:37:19;11;11;
64631;PMS5003;58358;50.936;0.246;2022-08-11T16:39:45;10;10;
64631;PMS5003;58358;50.936;0.246;2022-08-11T16:42:10;14;14;
64631;PMS5003;58358;50.936;0.246;2022-08-11T16:44:35;13;12;
64631;PMS5003;58358;50.936;0.246;2022-08-11T16:47:01;11;10;
64631;PMS5003;58358;50.936;0.246;2022-08-11T16:49:28;13;13;
64631;PMS5003;58358;50.936;0.246;2022-08-11T16:51:52;14;14;
64631;PMS5003;58358;50.936;0.246;2022-08-11T16:54:18;10;10;
64631;PMS5003;58358;50.936;0.246;2022-08-11T16:56:44;11;11;
64631;PMS5003;58358;50.936;0.246;2022-08-11T16:59:10;14;14;
64631;PMS5003;58358;50.936;0.246;2022-08-11T17:01:34;10;10;
64631;PMS5003;58358;50.936;0.246;2022-08-11T17:04:01;13;13;
64631;PMS5003;58358;50.936;0.246;2022-08-11T17:06:25;11;11;
64631;PMS5003;58358;50.936;0.246;2022-08-11T17:08:51;11;11;
64631;PMS5003;58358;50.936;0.246;2022-08-11T17:11:15;12;12;
64631;PMS5003;58358;50.936;0.246;2022-08-11T17:13:41;11;11;
64631;PMS5003;58358;50.936;0.246;2022-08-11T17:16:07;13;12;
64631;PMS5003;58358;50.936;0.246;2022-08-11T17:18:32;12;11;
64631;PMS5003;58358;50.936;0.246;2022-08-11T17:20:57;12;12;